Time;durP1;ratioP1;P1;durP2;ratioP2;P2;SDS_P1;SDS_P2;PMS_P1;PMS_P2;Temp;Humidity;BMP_temperature;BMP_pressure;BME280_temperature;BME280_humidity;BME280_pressure;Samples;Min_cycle;Max_cycle;Signal;HPM_P1;HPM_P2
2022/03/25 00:00:42;;;;;;;34.70;19.20;;;8.40;99.90;;;;;;5051518;28;20204;-82
2022/03/25 00:03:08;;;;;;;34.30;19.93;;;8.30;99.90;;;;;;5052743;28;20179;-83
2022/03/25 00:05:34;;;;;;;33.13;20.33;;;8.30;99.90;;;;;;5067931;28;20175;-83
2022/03/25 00:08:01;;;;;;;38.27;19.80;;;8.30;99.90;;;;;;5051140;28;20188;-83
2022/03/25 00:10:27;;;;;;;32.63;19.43;;;8.30;99.90;;;;;;5051230;28;20674;-83
2022/03/25 00:12:53;;;;;;;31.37;20.40;;;8.30;99.90;;;;;;5052543;28;20417;-83
2022/03/25 00:15:18;;;;;;;29.57;19.30;;;8.20;99.90;;;;;;5051052;28;20238;-84
2022/03/25 00:17:44;;;;;;;31.47;18.73;;;8.20;99.90;;;;;;5067531;28;20211;-83
2022/03/25 00:20:10;;;;;;;35.13;19.77;;;8.10;99.90;;;;;;5050882;28;20650;-83
2022/03/25 00:22:37;;;;;;;41.73;21.43;;;8.10;99.90;;;;;;5170210;22;20320;-79
2022/03/25 00:25:05;;;;;;;38.27;21.30;;;8.10;99.90;;;;;;5112950;28;20408;-79
2022/03/25 00:27:34;;;;;;;35.00;20.10;;;8.10;99.90;;;;;;5112708;28;20459;-80
2022/03/25 00:29:59;;;;;;;29.90;18.00;;;8.10;99.90;;;;;;5113077;28;20407;-79
2022/03/25 00:32:25;;;;;;;41.90;21.33;;;8.10;99.90;;;;;;5112951;28;20465;-80
2022/03/25 00:34:51;;;;;;;32.83;19.90;;;8.00;99.90;;;;;;5113179;28;20218;-79
2022/03/25 00:37:17;;;;;;;33.03;18.60;;;8.00;99.90;;;;;;5112594;28;20302;-79
2022/03/25 00:39:44;;;;;;;37.13;20.90;;;8.00;99.90;;;;;;5112859;28;20977;-79
2022/03/25 00:42:11;;;;;;;41.83;21.97;;;8.00;99.90;;;;;;5112915;28;20687;-80
2022/03/25 00:44:38;;;;;;;32.63;19.00;;;7.90;99.90;;;;;;5112837;28;20765;-79
2022/03/25 00:47:04;;;;;;;31.80;19.47;;;7.90;99.90;;;;;;5112323;28;20451;-79
2022/03/25 00:49:30;;;;;;;43.13;19.30;;;7.90;99.90;;;;;;5112910;28;20412;-81
2022/03/25 00:51:55;;;;;;;37.50;20.93;;;7.90;99.90;;;;;;5094445;28;20438;-81
2022/03/25 00:54:21;;;;;;;38.27;21.70;;;7.90;99.90;;;;;;5112920;28;20177;-79
2022/03/25 00:56:46;;;;;;;38.20;20.20;;;7.90;99.90;;;;;;5112369;28;20180;-79
2022/03/25 00:59:13;;;;;;;38.60;19.10;;;7.80;99.90;;;;;;5113199;28;20550;-79
2022/03/25 01:01:39;;;;;;;36.50;20.10;;;7.80;99.90;;;;;;5094315;28;20272;-80
2022/03/25 01:04:05;;;;;;;35.40;20.70;;;7.80;99.90;;;;;;5112765;28;20482;-80
2022/03/25 01:06:31;;;;;;;34.53;19.20;;;7.80;99.90;;;;;;5111992;28;20174;-80
2022/03/25 01:08:56;;;;;;;32.63;20.40;;;7.70;99.90;;;;;;5112643;28;20783;-80
2022/03/25 01:11:22;;;;;;;39.27;21.03;;;7.70;99.90;;;;;;5112648;28;20414;-80
2022/03/25 01:13:48;;;;;;;35.70;19.43;;;7.60;99.90;;;;;;5094249;28;20252;-81
2022/03/25 01:16:13;;;;;;;33.00;18.73;;;7.60;99.90;;;;;;5094054;28;20470;-80
2022/03/25 01:18:39;;;;;;;33.33;21.50;;;7.60;99.90;;;;;;5094304;28;20181;-81
2022/03/25 01:21:05;;;;;;;34.40;19.10;;;7.60;99.90;;;;;;5112749;28;20522;-80
2022/03/25 01:23:31;;;;;;;34.87;20.30;;;7.50;99.90;;;;;;5094036;28;20740;-81
2022/03/25 01:25:56;;;;;;;37.17;20.37;;;7.50;99.90;;;;;;5112411;28;20644;-80
2022/03/25 01:28:23;;;;;;;33.70;19.27;;;7.40;99.90;;;;;;5094180;28;20466;-80
2022/03/25 01:30:49;;;;;;;36.93;21.17;;;7.30;99.90;;;;;;5094319;28;20764;-80
2022/03/25 01:33:15;;;;;;;33.37;18.97;;;7.30;99.90;;;;;;5112262;28;20479;-80
2022/03/25 01:35:41;;;;;;;32.70;18.40;;;7.30;99.90;;;;;;5094236;28;20235;-79
2022/03/25 01:38:07;;;;;;;37.10;20.30;;;7.40;99.90;;;;;;5094260;28;20559;-80
2022/03/25 01:40:33;;;;;;;37.73;21.00;;;7.30;99.90;;;;;;5094317;28;20478;-80
2022/03/25 01:42:59;;;;;;;33.00;19.57;;;7.30;99.90;;;;;;5112314;28;20274;-80
2022/03/25 01:45:36;;;;;;;36.47;19.57;;;7.30;99.90;;;;;;5094175;28;20422;-80
2022/03/25 01:48:07;;;;;;;29.10;19.50;;;7.20;99.90;;;;;;5112174;28;20457;-80
2022/03/25 01:50:33;;;;;;;31.40;18.07;;;7.20;99.90;;;;;;5093957;28;20433;-80
2022/03/25 01:52:58;;;;;;;28.47;17.70;;;7.10;99.90;;;;;;5094049;28;20441;-79
2022/03/25 01:55:28;;;;;;;35.17;20.80;;;7.10;99.90;;;;;;5112197;28;20666;-81
2022/03/25 01:57:57;;;;;;;30.50;18.60;;;7.10;99.90;;;;;;5093687;28;20176;-81
2022/03/25 02:00:24;;;;;;;39.50;20.20;;;7.00;99.90;;;;;;5113023;28;20425;-80
2022/03/25 02:02:50;;;;;;;34.10;19.67;;;7.00;99.90;;;;;;5116181;28;20434;-80
2022/03/25 02:05:17;;;;;;;30.00;17.50;;;7.00;99.90;;;;;;5097720;28;20425;-81
2022/03/25 02:07:43;;;;;;;40.80;19.50;;;6.80;99.90;;;;;;5097840;28;20469;-80
2022/03/25 02:10:08;;;;;;;35.50;19.13;;;6.60;99.90;;;;;;5116026;28;20468;-81
2022/03/25 02:12:35;;;;;;;35.80;20.00;;;6.60;99.90;;;;;;5097488;28;20284;-81
2022/03/25 02:15:02;;;;;;;31.90;19.67;;;6.60;99.90;;;;;;5097898;28;20417;-79
2022/03/25 02:17:27;;;;;;;41.53;19.87;;;6.60;99.90;;;;;;5116221;28;20778;-80
2022/03/25 02:19:53;;;;;;;37.17;19.27;;;6.70;99.90;;;;;;5097457;28;20504;-79
2022/03/25 02:22:18;;;;;;;33.00;20.90;;;6.60;99.90;;;;;;5115572;28;20216;-79
2022/03/25 02:24:44;;;;;;;31.50;19.27;;;6.60;99.90;;;;;;5115392;28;20249;-79
2022/03/25 02:27:12;;;;;;;29.60;18.40;;;6.60;99.90;;;;;;5115197;28;20206;-80
2022/03/25 02:29:39;;;;;;;34.60;20.40;;;6.60;99.90;;;;;;5097091;28;20187;-80
2022/03/25 02:32:05;;;;;;;39.17;19.30;;;6.60;99.90;;;;;;5115718;28;20801;-80
2022/03/25 02:34:31;;;;;;;37.03;18.87;;;6.60;99.90;;;;;;5115497;28;20405;-80
2022/03/25 02:36:57;;;;;;;38.10;19.60;;;6.60;99.90;;;;;;5115047;28;20413;-79
2022/03/25 02:39:23;;;;;;;34.03;20.30;;;6.50;99.90;;;;;;5115282;28;20416;-79
2022/03/25 02:41:49;;;;;;;32.00;18.30;;;6.50;99.90;;;;;;5115336;28;20210;-79
2022/03/25 02:44:14;;;;;;;31.90;19.17;;;6.60;99.90;;;;;;5115372;28;20409;-80
2022/03/25 02:46:40;;;;;;;38.10;19.30;;;6.50;99.90;;;;;;5096233;28;20422;-79
2022/03/25 02:49:06;;;;;;;34.00;18.13;;;6.50;99.90;;;;;;5115367;28;20177;-81
2022/03/25 02:51:31;;;;;;;33.40;18.03;;;6.50;99.90;;;;;;5096744;28;20179;-80
2022/03/25 02:53:57;;;;;;;31.10;17.77;;;6.40;99.90;;;;;;5115208;28;20262;-80
2022/03/25 02:56:24;;;;;;;30.47;18.10;;;6.40;99.90;;;;;;5096829;28;20184;-80
2022/03/25 02:58:50;;;;;;;31.50;17.90;;;6.40;99.90;;;;;;5114621;28;20171;-80
2022/03/25 03:01:16;;;;;;;33.30;18.03;;;6.40;99.90;;;;;;5096698;28;20470;-80
2022/03/25 03:03:41;;;;;;;38.60;18.07;;;6.20;99.90;;;;;;5114764;28;20922;-79
2022/03/25 03:06:07;;;;;;;33.20;20.00;;;6.10;99.90;;;;;;5114667;28;20232;-79
2022/03/25 03:08:35;;;;;;;37.20;18.10;;;6.20;99.90;;;;;;5114423;28;20206;-80
2022/03/25 03:11:01;;;;;;;35.40;17.63;;;6.20;99.90;;;;;;5114747;28;20542;-80
2022/03/25 03:13:26;;;;;;;30.17;15.70;;;6.20;99.90;;;;;;5096599;28;20442;-80
2022/03/25 03:15:52;;;;;;;34.57;19.77;;;6.20;99.90;;;;;;5114671;28;20925;-79
2022/03/25 03:18:20;;;;;;;36.33;18.07;;;6.20;99.90;;;;;;5113999;28;20186;-79
2022/03/25 03:20:45;;;;;;;33.00;18.23;;;6.20;99.90;;;;;;5096328;28;20439;-80
2022/03/25 03:23:11;;;;;;;34.97;18.03;;;6.10;99.90;;;;;;5096028;28;20506;-81
2022/03/25 03:25:37;;;;;;;28.40;17.97;;;6.10;99.90;;;;;;5114617;28;20179;-79
2022/03/25 03:28:04;;;;;;;33.57;17.13;;;6.10;99.90;;;;;;5096024;28;20209;-80
2022/03/25 03:30:29;;;;;;;31.13;18.57;;;6.10;99.90;;;;;;5096225;28;20205;-80
2022/03/25 03:32:57;;;;;;;36.07;18.30;;;6.10;99.90;;;;;;5096099;28;20468;-80
2022/03/25 03:35:25;;;;;;;30.90;21.93;;;6.00;99.90;;;;;;5114480;28;20538;-80
2022/03/25 03:37:51;;;;;;;34.60;18.77;;;5.80;99.90;;;;;;5095997;28;20462;-80
2022/03/25 03:40:17;;;;;;;31.90;18.33;;;5.80;99.90;;;;;;5114089;28;20403;-80
2022/03/25 03:42:43;;;;;;;31.50;16.83;;;5.60;99.90;;;;;;5113980;28;20801;-80
2022/03/25 03:45:08;;;;;;;32.63;17.63;;;5.70;99.90;;;;;;5113825;28;20247;-79
2022/03/25 03:47:38;;;;;;;28.37;15.60;;;5.70;99.90;;;;;;5113739;28;21022;-80
2022/03/25 03:50:06;;;;;;;29.13;17.73;;;5.70;99.90;;;;;;5095978;28;20607;-80
2022/03/25 03:52:32;;;;;;;37.77;20.20;;;5.70;99.90;;;;;;5095850;28;20950;-80
2022/03/25 03:54:57;;;;;;;28.10;15.20;;;5.80;99.90;;;;;;5113843;28;20460;-80
2022/03/25 03:57:24;;;;;;;29.07;16.67;;;5.80;99.90;;;;;;5095323;28;20180;-80
2022/03/25 03:59:49;;;;;;;30.53;16.83;;;5.80;99.90;;;;;;5114296;28;20589;-80
2022/03/25 04:02:15;;;;;;;32.57;18.07;;;5.70;99.90;;;;;;5113521;28;20511;-80
2022/03/25 04:04:41;;;;;;;31.33;17.37;;;5.70;99.90;;;;;;5092699;28;20240;-79
2022/03/25 04:07:07;;;;;;;35.57;17.23;;;5.70;99.90;;;;;;5113369;28;20451;-80
2022/03/25 04:09:35;;;;;;;28.63;17.20;;;5.70;99.90;;;;;;5095977;28;20217;-80
2022/03/25 04:12:01;;;;;;;33.87;17.00;;;5.60;99.90;;;;;;5113388;28;20429;-80
2022/03/25 04:14:27;;;;;;;31.47;16.50;;;5.60;99.90;;;;;;5113515;28;20403;-80
2022/03/25 04:16:52;;;;;;;32.53;15.93;;;5.60;99.90;;;;;;5094744;28;20188;-80
2022/03/25 04:19:18;;;;;;;34.73;17.13;;;5.50;99.90;;;;;;5095472;28;20182;-80
2022/03/25 04:21:43;;;;;;;32.83;16.50;;;5.50;99.90;;;;;;5113330;28;20173;-79
2022/03/25 04:24:09;;;;;;;29.23;15.03;;;5.50;99.90;;;;;;5113172;28;20192;-80
2022/03/25 04:26:34;;;;;;;28.73;16.23;;;5.50;99.90;;;;;;5094891;28;20288;-80
2022/03/25 04:29:00;;;;;;;28.80;16.17;;;5.50;99.90;;;;;;5113290;28;20201;-80
2022/03/25 04:31:25;;;;;;;28.83;15.20;;;5.50;99.90;;;;;;5113184;28;20172;-79
2022/03/25 04:33:51;;;;;;;24.93;15.30;;;5.50;99.90;;;;;;5113126;28;20173;-79
2022/03/25 04:36:17;;;;;;;29.20;16.47;;;5.50;99.90;;;;;;5113006;28;20257;-79
2022/03/25 04:38:43;;;;;;;28.87;15.73;;;5.50;99.90;;;;;;5094594;28;20185;-81
2022/03/25 04:41:10;;;;;;;30.47;16.77;;;5.40;99.90;;;;;;5113122;28;20713;-80
2022/03/25 04:43:36;;;;;;;26.73;15.10;;;5.30;99.90;;;;;;5112912;28;20300;-80
2022/03/25 04:46:02;;;;;;;25.67;15.00;;;5.40;99.90;;;;;;5094559;28;20522;-80
2022/03/25 04:48:28;;;;;;;29.70;17.10;;;5.20;99.90;;;;;;5112749;28;20547;-80
2022/03/25 04:50:53;;;;;;;31.43;17.67;;;5.20;99.90;;;;;;5113253;28;20414;-80
2022/03/25 04:53:19;;;;;;;28.47;15.50;;;5.30;99.90;;;;;;5095126;28;20194;-81
2022/03/25 04:55:45;;;;;;;29.13;15.90;;;5.20;99.90;;;;;;5094849;28;20188;-81
2022/03/25 04:58:10;;;;;;;28.40;16.93;;;5.30;99.90;;;;;;5094799;28;20182;-80
2022/03/25 05:00:37;;;;;;;30.47;17.33;;;5.20;99.90;;;;;;5095507;28;20672;-80
2022/03/25 05:03:03;;;;;;;31.97;16.83;;;5.20;99.90;;;;;;5113640;28;20201;-80
2022/03/25 05:05:30;;;;;;;29.60;15.50;;;5.10;99.90;;;;;;5096417;28;21039;-81
2022/03/25 05:07:55;;;;;;;30.77;16.10;;;5.10;99.90;;;;;;5096863;28;20550;-80
2022/03/25 05:10:21;;;;;;;32.27;16.73;;;5.10;99.90;;;;;;5097566;28;20453;-79
2022/03/25 05:12:47;;;;;;;32.00;15.80;;;5.00;99.90;;;;;;5094445;28;20200;-80
2022/03/25 05:15:13;;;;;;;32.83;17.10;;;4.90;99.90;;;;;;5112574;28;20200;-79
2022/03/25 05:17:51;;;;;;;29.13;16.33;;;4.90;99.90;;;;;;5094065;28;20181;-79
2022/03/25 05:20:18;;;;;;;31.70;16.10;;;4.90;99.90;;;;;;5112537;28;20409;-79
2022/03/25 05:22:45;;;;;;;26.30;16.27;;;4.80;99.90;;;;;;5112575;28;20461;-80
2022/03/25 05:25:10;;;;;;;30.63;18.57;;;4.80;99.90;;;;;;5112371;28;20418;-80
2022/03/25 05:27:51;;;;;;;30.20;16.47;;;4.90;99.90;;;;;;5112268;28;20458;-80
2022/03/25 05:30:20;;;;;;;29.20;16.37;;;4.90;99.90;;;;;;5112580;28;20529;-80
2022/03/25 05:32:46;;;;;;;30.17;16.90;;;5.00;99.90;;;;;;5094015;28;20528;-81
2022/03/25 05:35:12;;;;;;;33.13;17.60;;;5.00;99.90;;;;;;5112811;28;20957;-80
2022/03/25 05:37:38;;;;;;;28.90;16.60;;;5.00;99.90;;;;;;5116216;28;20644;-80
2022/03/25 05:40:06;;;;;;;37.03;18.20;;;5.10;99.90;;;;;;5098188;28;20185;-79
2022/03/25 05:42:33;;;;;;;28.60;17.40;;;5.00;99.90;;;;;;5116089;28;21061;-80
2022/03/25 05:44:58;;;;;;;35.77;17.70;;;5.00;99.90;;;;;;5116021;28;20438;-80
2022/03/25 05:47:24;;;;;;;26.70;15.50;;;5.10;99.90;;;;;;5115734;28;20497;-80
2022/03/25 05:49:50;;;;;;;35.67;19.10;;;5.10;99.90;;;;;;5116039;28;20184;-80
2022/03/25 05:52:16;;;;;;;30.37;15.97;;;5.10;99.90;;;;;;5115911;28;20434;-80
2022/03/25 05:54:42;;;;;;;35.00;17.73;;;5.20;99.90;;;;;;5115943;28;20173;-81
2022/03/25 05:57:08;;;;;;;30.27;16.80;;;5.30;99.90;;;;;;5115761;28;20974;-81
2022/03/25 05:59:33;;;;;;;32.93;17.20;;;5.30;99.90;;;;;;5097784;28;20961;-80
2022/03/25 06:01:59;;;;;;;33.57;18.07;;;5.40;99.90;;;;;;5115899;28;20197;-79
2022/03/25 06:04:24;;;;;;;36.97;16.67;;;5.30;99.90;;;;;;5116195;28;20210;-80
2022/03/25 06:06:50;;;;;;;38.77;18.57;;;5.20;99.90;;;;;;5115964;28;20184;-81
2022/03/25 06:09:15;;;;;;;36.53;17.90;;;5.30;99.90;;;;;;5116358;28;20174;-81
2022/03/25 06:11:41;;;;;;;29.17;16.73;;;5.40;99.90;;;;;;5100513;28;20170;-81
2022/03/25 06:14:07;;;;;;;32.40;18.13;;;5.40;99.90;;;;;;5118106;28;20178;-82
2022/03/25 06:16:32;;;;;;;33.97;17.77;;;5.50;99.90;;;;;;5100910;28;20245;-80
2022/03/25 06:18:58;;;;;;;34.77;19.03;;;5.60;99.90;;;;;;5118790;28;20610;-80
2022/03/25 06:21:24;;;;;;;29.60;16.10;;;5.60;99.90;;;;;;5118444;28;20243;-81
2022/03/25 06:23:50;;;;;;;33.57;17.30;;;5.60;99.90;;;;;;5112558;22;20725;-81
2022/03/25 06:26:16;;;;;;;33.70;19.17;;;5.60;99.90;;;;;;5061261;28;20177;-81
2022/03/25 06:28:42;;;;;;;35.40;17.83;;;5.60;99.90;;;;;;5079274;28;20564;-81
2022/03/25 06:31:08;;;;;;;25.60;16.60;;;5.70;99.90;;;;;;5061204;28;20456;-80
2022/03/25 06:33:34;;;;;;;31.77;15.90;;;5.90;99.90;;;;;;5061229;28;20199;-80
2022/03/25 06:35:59;;;;;;;31.00;19.30;;;5.90;99.90;;;;;;5078890;28;20178;-80
2022/03/25 06:38:25;;;;;;;30.53;16.90;;;5.80;99.90;;;;;;5079625;28;20309;-80
2022/03/25 06:40:50;;;;;;;31.83;16.03;;;5.90;99.90;;;;;;5078841;28;20172;-81
2022/03/25 06:43:16;;;;;;;37.57;18.97;;;6.10;99.90;;;;;;5080169;28;20679;-81
2022/03/25 06:45:41;;;;;;;29.87;18.30;;;6.30;99.90;;;;;;5077988;28;20171;-80
2022/03/25 06:48:07;;;;;;;29.93;18.70;;;6.40;99.90;;;;;;5059194;28;20206;-82
2022/03/25 06:50:33;;;;;;;34.97;16.90;;;6.50;99.90;;;;;;5077832;28;20176;-81
2022/03/25 06:53:01;;;;;;;28.30;18.40;;;6.50;99.90;;;;;;5077607;28;20202;-81
2022/03/25 06:55:27;;;;;;;38.17;18.17;;;6.70;99.90;;;;;;5077344;28;20179;-81
2022/03/25 06:57:53;;;;;;;33.00;18.70;;;6.90;99.90;;;;;;5059304;28;20433;-81
2022/03/25 07:00:20;;;;;;;34.73;17.80;;;7.00;99.90;;;;;;5057349;28;20197;-81
2022/03/25 07:02:46;;;;;;;31.70;18.63;;;7.10;99.90;;;;;;5074448;28;20939;-82
2022/03/25 07:05:15;;;;;;;30.50;18.70;;;7.30;99.90;;;;;;5058509;28;20422;-82
2022/03/25 07:07:42;;;;;;;32.00;19.00;;;7.40;99.90;;;;;;5074636;28;20946;-82
2022/03/25 07:10:10;;;;;;;44.67;21.07;;;7.50;99.90;;;;;;5056927;28;20429;-82
2022/03/25 07:12:37;;;;;;;35.33;19.90;;;7.70;99.90;;;;;;5074614;28;20435;-82
2022/03/25 07:15:05;;;;;;;40.70;20.93;;;7.70;99.90;;;;;;5056731;28;20787;-81
2022/03/25 07:17:30;;;;;;;40.10;21.30;;;7.80;99.90;;;;;;5056711;28;20509;-82
2022/03/25 07:19:56;;;;;;;41.03;21.30;;;7.90;99.90;;;;;;5056545;28;20463;-83
2022/03/25 07:22:21;;;;;;;35.00;20.67;;;8.00;99.90;;;;;;5056322;28;20679;-82
2022/03/25 07:24:47;;;;;;;37.23;22.13;;;8.10;99.90;;;;;;5056687;28;20236;-82
2022/03/25 07:27:12;;;;;;;41.07;22.47;;;8.20;99.90;;;;;;5056158;28;20214;-82
2022/03/25 07:29:38;;;;;;;40.80;22.00;;;8.30;99.90;;;;;;5056324;28;20525;-82
2022/03/25 07:32:05;;;;;;;36.13;21.23;;;8.40;99.90;;;;;;5074472;28;20232;-82
2022/03/25 07:34:31;;;;;;;42.17;23.47;;;8.60;99.90;;;;;;5074131;28;20198;-82
2022/03/25 07:36:57;;;;;;;31.43;20.63;;;8.70;99.90;;;;;;5055560;28;20425;-82
2022/03/25 07:39:23;;;;;;;32.83;20.10;;;8.80;99.90;;;;;;5055948;28;20431;-82
2022/03/25 07:41:49;;;;;;;37.03;21.30;;;9.00;99.90;;;;;;5055695;28;20662;-84
2022/03/25 07:44:14;;;;;;;41.40;23.23;;;9.00;99.90;;;;;;5073313;28;20191;-82
2022/03/25 07:46:40;;;;;;;47.93;22.53;;;9.10;99.90;;;;;;5055704;28;20233;-82
2022/03/25 07:49:06;;;;;;;42.17;22.20;;;9.20;99.90;;;;;;5055850;28;20210;-82
2022/03/25 07:51:32;;;;;;;39.60;22.13;;;9.40;99.90;;;;;;5073782;28;20167;-83
2022/03/25 07:53:57;;;;;;;42.47;22.83;;;9.50;99.90;;;;;;5055436;28;20436;-82
2022/03/25 07:56:23;;;;;;;39.63;21.63;;;9.50;99.90;;;;;;5073414;28;20217;-83
2022/03/25 07:58:52;;;;;;;36.97;22.47;;;9.60;99.90;;;;;;5072493;28;20178;-83
2022/03/25 08:01:17;;;;;;;38.00;20.50;;;9.80;99.90;;;;;;5055377;28;20496;-82
2022/03/25 08:03:43;;;;;;;37.63;21.37;;;9.90;99.90;;;;;;5055623;28;20518;-83
2022/03/25 08:06:12;;;;;;;39.83;22.40;;;9.90;99.90;;;;;;5055370;28;20183;-82
2022/03/25 08:08:38;;;;;;;39.20;22.87;;;10.00;99.90;;;;;;5055349;28;20203;-82
2022/03/25 08:11:03;;;;;;;38.07;22.23;;;10.20;99.90;;;;;;5055272;28;20771;-82
2022/03/25 08:13:29;;;;;;;39.43;22.90;;;10.30;99.90;;;;;;5055181;28;20679;-82
2022/03/25 08:15:55;;;;;;;42.30;23.47;;;10.40;99.90;;;;;;5055058;28;20552;-82
2022/03/25 08:18:20;;;;;;;39.50;21.87;;;10.60;99.90;;;;;;5072970;28;20679;-83
2022/03/25 08:20:48;;;;;;;38.90;23.57;;;10.80;99.90;;;;;;5054792;28;20721;-82
2022/03/25 08:28:52;;;;;;;37.60;23.23;;;11.20;99.90;;;;;;5053650;28;20440;-82
2022/03/25 08:31:17;;;;;;;40.27;23.63;;;11.30;99.90;;;;;;5036495;28;20415;-83
2022/03/25 08:33:44;;;;;;;43.83;26.17;;;11.50;99.90;;;;;;5034948;28;20603;-83
2022/03/25 08:36:10;;;;;;;42.80;22.90;;;11.50;99.90;;;;;;5035239;28;20183;-83
2022/03/25 08:38:35;;;;;;;44.03;22.87;;;11.60;99.90;;;;;;5052956;28;20429;-82
2022/03/25 08:41:01;;;;;;;41.30;24.10;;;11.70;99.90;;;;;;5052654;28;20418;-83
2022/03/25 08:43:27;;;;;;;41.40;25.07;;;11.70;99.90;;;;;;5083129;23;20629;-67
2022/03/25 08:45:53;;;;;;;45.17;24.30;;;11.80;99.90;;;;;;5081907;28;20282;-67
2022/03/25 08:48:19;;;;;;;38.77;23.40;;;11.90;99.90;;;;;;5091619;28;20481;-68
2022/03/25 08:50:45;;;;;;;41.70;24.10;;;12.10;99.90;;;;;;5094628;28;20412;-68
2022/03/25 08:53:11;;;;;;;35.07;22.20;;;12.10;99.90;;;;;;5093770;28;20215;-67
2022/03/25 08:55:36;;;;;;;48.10;25.83;;;12.20;99.90;;;;;;5093716;28;20746;-67
2022/03/25 08:58:03;;;;;;;40.53;23.73;;;12.20;99.90;;;;;;5093672;28;20197;-68
2022/03/25 09:00:28;;;;;;;48.67;24.70;;;12.40;99.90;;;;;;5093578;28;20177;-68
2022/03/25 09:02:54;;;;;;;44.53;23.33;;;12.50;99.90;;;;;;5093653;28;20793;-68
2022/03/25 09:05:21;;;;;;;45.47;25.10;;;12.70;99.90;;;;;;5093845;28;20189;-67
2022/03/25 09:07:46;;;;;;;38.10;24.03;;;12.90;99.90;;;;;;5085086;28;20209;-68
2022/03/25 09:10:17;;;;;;;41.77;25.13;;;13.00;99.90;;;;;;5095308;28;20967;-67
2022/03/25 09:12:44;;;;;;;37.70;24.60;;;13.10;99.90;;;;;;5100434;28;20196;-67
2022/03/25 09:15:13;;;;;;;43.50;25.27;;;13.20;99.90;;;;;;5100364;28;20415;-68
2022/03/25 09:17:40;;;;;;;39.13;22.20;;;13.50;99.90;;;;;;5100156;28;20441;-68
2022/03/25 09:20:06;;;;;;;43.30;26.00;;;13.70;99.90;;;;;;5100329;28;20466;-68
2022/03/25 09:22:34;;;;;;;39.27;24.03;;;13.80;99.90;;;;;;5099788;28;20423;-67
2022/03/25 09:25:01;;;;;;;39.90;24.13;;;14.00;99.90;;;;;;5100042;28;20415;-68
2022/03/25 09:27:27;;;;;;;36.07;23.00;;;14.00;99.90;;;;;;5100124;28;20845;-68
2022/03/25 09:29:53;;;;;;;43.30;25.13;;;14.30;99.90;;;;;;5100312;28;20408;-68
2022/03/25 09:32:19;;;;;;;35.57;22.33;;;14.60;99.90;;;;;;5100219;28;20917;-68
2022/03/25 09:37:29;;;;;;;42.50;22.53;;;17.00;99.90;;;;;;5118714;28;20792;-68
2022/03/25 09:39:55;;;;;;;32.90;20.90;;;19.60;99.90;;;;;;5100117;28;20419;-68
2022/03/25 09:42:21;;;;;;;38.97;22.80;;;21.50;99.30;;;;;;5100148;28;20177;-68
2022/03/25 09:44:49;;;;;;;32.97;23.40;;;23.50;91.70;;;;;;5100239;28;20280;-68
2022/03/25 09:47:17;;;;;;;34.10;21.33;;;25.00;75.30;;;;;;5099236;28;20213;-68
2022/03/25 09:49:44;;;;;;;32.73;22.30;;;26.70;63.40;;;;;;5100219;28;20764;-67
2022/03/25 09:52:10;;;;;;;31.77;22.03;;;27.80;54.50;;;;;;5099955;28;20422;-67
2022/03/25 09:54:36;;;;;;;32.80;22.10;;;29.00;50.10;;;;;;5100366;28;20882;-67
2022/03/25 09:57:03;;;;;;;30.00;21.40;;;30.10;46.50;;;;;;5099598;28;20835;-67
2022/03/25 09:59:29;;;;;;;31.70;22.33;;;31.00;43.30;;;;;;5100040;28;20971;-67
2022/03/25 10:01:55;;;;;;;33.63;22.10;;;30.90;40.60;;;;;;5099662;28;20423;-67
2022/03/25 10:04:40;;;;;;;26.30;19.73;;;31.50;40.30;;;;;;5100052;28;20411;-67
2022/03/25 10:07:26;;;;;;;27.87;20.23;;;31.70;37.80;;;;;;5099527;28;20506;-67
2022/03/25 10:10:10;;;;;;;27.90;20.00;;;33.10;35.00;;;;;;5100190;28;20415;-67
2022/03/25 10:12:37;;;;;;;24.93;19.13;;;33.90;33.30;;;;;;5099634;28;20842;-67
2022/03/25 10:15:14;;;;;;;25.30;18.67;;;33.20;32.40;;;;;;5099836;28;20787;-67
2022/03/25 10:17:51;;;;;;;23.70;16.83;;;34.10;32.10;;;;;;5099459;28;20507;-67
2022/03/25 10:20:19;;;;;;;26.83;19.10;;;34.20;30.10;;;;;;5099963;28;20423;-67
2022/03/25 10:23:08;;;;;;;23.27;18.10;;;35.20;29.90;;;;;;5095902;28;20844;-68
2022/03/25 10:25:38;;;;;;;23.27;18.40;;;35.90;29.80;;;;;;5096284;28;20856;-67
2022/03/25 10:28:17;;;;;;;19.90;14.87;;;36.70;29.50;;;;;;5096283;28;20454;-67
2022/03/25 10:30:44;;;;;;;18.83;15.10;;;37.40;28.50;;;;;;5096611;28;20439;-67
2022/03/25 10:33:12;;;;;;;17.47;14.10;;;37.10;26.30;;;;;;5096205;28;20420;-67
2022/03/25 10:36:08;;;;;;;12.90;11.20;;;37.40;27.00;;;;;;5096138;28;20415;-67
2022/03/25 10:38:44;;;;;;;13.40;9.00;;;36.60;25.70;;;;;;5096171;28;20432;-67
2022/03/25 10:41:12;;;;;;;9.80;8.67;;;37.30;25.90;;;;;;5096522;28;20953;-67
2022/03/25 10:43:51;;;;;;;10.53;7.40;;;37.50;24.60;;;;;;5095947;28;20447;-67
2022/03/25 10:46:37;;;;;;;9.50;7.80;;;37.30;24.60;;;;;;5095862;28;20407;-67
2022/03/25 10:49:05;;;;;;;8.03;5.67;;;37.80;24.60;;;;;;5079822;28;20828;-67
2022/03/25 10:51:33;;;;;;;7.13;5.10;;;37.20;23.70;;;;;;5087717;28;20448;-67
2022/03/25 10:54:03;;;;;;;11.13;6.70;;;36.60;23.80;;;;;;5079990;28;21138;-67
2022/03/25 10:56:50;;;;;;;9.90;5.20;;;36.70;23.80;;;;;;5091944;28;20498;-67
2022/03/25 10:59:34;;;;;;;6.20;4.90;;;35.20;23.70;;;;;;5085348;28;20428;-67
2022/03/25 11:02:00;;;;;;;9.77;6.57;;;34.30;24.50;;;;;;5095442;28;20871;-67
2022/03/25 11:04:27;;;;;;;9.67;5.70;;;33.00;25.00;;;;;;5095738;28;20408;-67
2022/03/25 11:06:54;;;;;;;8.80;4.73;;;33.60;25.60;;;;;;5095381;28;20950;-67
2022/03/25 11:09:21;;;;;;;8.43;4.40;;;33.80;25.20;;;;;;5095777;28;20420;-66
2022/03/25 11:11:49;;;;;;;7.93;5.10;;;34.50;25.60;;;;;;5095740;28;20423;-67
2022/03/25 11:14:16;;;;;;;9.20;5.47;;;34.40;24.40;;;;;;5095622;28;20468;-67
2022/03/25 11:16:47;;;;;;;7.70;5.53;;;35.00;24.30;;;;;;5095217;28;20480;-67
2022/03/25 11:19:14;;;;;;;7.30;4.60;;;35.50;24.40;;;;;;5095325;28;20462;-67
2022/03/25 11:21:45;;;;;;;5.53;3.70;;;35.70;23.60;;;;;;5095331;28;20496;-67
2022/03/25 11:24:22;;;;;;;7.53;5.27;;;35.90;23.20;;;;;;5095244;28;20472;-67
2022/03/25 11:26:50;;;;;;;6.73;5.20;;;35.60;23.90;;;;;;5094666;28;20435;-67
2022/03/25 11:29:20;;;;;;;10.20;6.10;;;34.80;24.60;;;;;;5095352;28;20422;-67
2022/03/25 11:32:06;;;;;;;7.43;5.90;;;34.20;25.00;;;;;;5094745;28;20411;-67
2022/03/25 11:34:53;;;;;;;8.13;5.67;;;34.20;25.40;;;;;;5080650;28;20511;-67
2022/03/25 11:37:28;;;;;;;9.80;6.70;;;33.60;24.60;;;;;;5067414;28;20589;-67
2022/03/25 11:40:13;;;;;;;8.97;7.07;;;33.10;24.90;;;;;;5074916;28;20408;-67
2022/03/25 11:42:44;;;;;;;10.23;6.30;;;32.90;25.90;;;;;;5074746;28;20919;-67
2022/03/25 11:45:31;;;;;;;9.57;6.30;;;33.90;25.80;;;;;;5074995;28;20484;-67
2022/03/25 11:48:00;;;;;;;11.10;6.67;;;34.90;24.70;;;;;;5074802;28;20439;-67
2022/03/25 11:50:37;;;;;;;13.30;6.80;;;36.20;24.70;;;;;;5074766;28;20430;-67
2022/03/25 11:53:12;;;;;;;9.30;6.73;;;37.10;24.20;;;;;;5074832;28;20789;-67
2022/03/25 11:56:07;;;;;;;9.27;6.57;;;36.80;23.70;;;;;;5075302;28;20416;-67
2022/03/25 11:58:37;;;;;;;10.40;7.43;;;36.30;24.50;;;;;;5090031;28;20474;-67
2022/03/25 12:01:16;;;;;;;9.50;7.30;;;35.30;23.80;;;;;;5089670;28;20443;-67
2022/03/25 12:03:44;;;;;;;7.60;6.10;;;35.10;24.10;;;;;;5092998;28;20456;-67
2022/03/25 12:06:11;;;;;;;10.87;7.37;;;35.50;24.00;;;;;;5086011;28;20466;-67
2022/03/25 12:08:39;;;;;;;9.07;7.03;;;36.60;24.70;;;;;;5094551;28;20411;-67
2022/03/25 12:11:08;;;;;;;8.93;6.63;;;37.50;24.00;;;;;;5094043;28;20426;-67
2022/03/25 12:14:04;;;;;;;10.40;7.27;;;37.70;23.20;;;;;;5094713;28;20918;-68
2022/03/25 12:16:47;;;;;;;8.80;5.67;;;36.50;22.60;;;;;;5077208;28;20488;-68
2022/03/25 12:19:26;;;;;;;11.37;6.90;;;34.80;23.60;;;;;;5094336;28;20470;-68
2022/03/25 12:22:02;;;;;;;9.90;8.03;;;33.30;24.80;;;;;;5094362;28;20435;-68
2022/03/25 12:24:30;;;;;;;10.67;7.60;;;32.40;25.70;;;;;;5094126;28;20502;-67
2022/03/25 12:26:56;;;;;;;11.50;8.10;;;33.30;25.80;;;;;;5093977;28;20443;-68
2022/03/25 12:32:02;;;;;;;8.80;7.23;;;34.90;25.00;;;;;;5078951;28;20677;-67
2022/03/25 12:34:52;;;;;;;9.13;6.93;;;35.30;24.50;;;;;;5082062;28;20404;-67
2022/03/25 12:37:41;;;;;;;12.40;6.70;;;35.70;24.40;;;;;;5088250;28;20458;-68
2022/03/25 12:40:16;;;;;;;11.53;7.10;;;36.70;24.30;;;;;;5068804;28;20797;-67
2022/03/25 12:42:43;;;;;;;13.07;6.80;;;37.00;23.50;;;;;;5066688;28;20428;-67
2022/03/25 12:45:09;;;;;;;10.80;7.50;;;37.40;24.10;;;;;;5073166;28;20423;-68
2022/03/25 12:47:37;;;;;;;11.03;7.37;;;37.60;22.30;;;;;;5073272;28;20444;-68
2022/03/25 12:50:05;;;;;;;9.47;6.60;;;37.00;22.80;;;;;;5073733;28;20412;-66